createdAt,value
2022-10-22T00:00:17.953Z,99948.19
2022-10-22T00:02:45.401Z,99958.47
2022-10-22T00:05:12.757Z,99963.59
2022-10-22T00:07:40.662Z,99941.31
2022-10-22T00:10:08.941Z,99961.91
2022-10-22T00:12:36.146Z,99926.75
2022-10-22T00:15:05.386Z,99949.81
2022-10-22T00:17:32.778Z,99895.06
2022-10-22T00:20:00.051Z,99874.56
2022-10-22T00:22:27.175Z,99944.59
2022-10-22T00:24:54.376Z,99914.72
2022-10-22T00:27:21.983Z,99932.56
2022-10-22T00:29:49.184Z,99945.41
2022-10-22T00:32:16.457Z,99948.88
2022-10-22T00:34:43.686Z,99951.41
2022-10-22T00:37:11.218Z,99948.00
2022-10-22T00:39:38.530Z,99953.16
2022-10-22T00:42:05.786Z,99931.81
2022-10-22T00:45:10.095Z,99960.03
2022-10-22T00:47:41.626Z,99955.69
2022-10-22T00:50:27.466Z,99956.53
2022-10-22T00:52:56.485Z,99947.97
2022-10-22T00:55:25.798Z,99949.63
2022-10-22T00:57:58.249Z,99930.78
2022-10-22T01:00:25.877Z,99926.47
2022-10-22T01:02:54.524Z,99934.19
2022-10-22T01:05:22.047Z,99940.13
2022-10-22T01:07:52.424Z,99925.47
2022-10-22T01:10:19.413Z,99920.28
2022-10-22T01:13:09.488Z,99898.06
2022-10-22T01:15:54.277Z,99916.84
2022-10-22T01:18:38.333Z,99894.56
2022-10-22T01:21:38.272Z,99901.44
2022-10-22T01:24:49.575Z,99870.63
2022-10-22T01:27:25.779Z,99908.19
2022-10-22T01:30:05.495Z,99868.94
2022-10-22T01:32:40.294Z,99896.16
2022-10-22T01:35:12.534Z,99906.44
2022-10-22T01:37:51.814Z,99903.84
2022-10-22T01:40:21.274Z,99903.03
2022-10-22T01:42:58.653Z,99909.88
2022-10-22T01:45:26.415Z,99867.09
2022-10-22T01:48:02.537Z,99904.69
2022-10-22T01:50:44.258Z,99894.41
2022-10-22T01:53:35.586Z,99898.63
2022-10-22T01:56:17.492Z,99902.91
2022-10-22T01:59:09.397Z,99900.31
2022-10-22T02:01:55.296Z,99886.53
2022-10-22T02:04:43.039Z,99882.28
2022-10-22T02:07:14.295Z,99890.06
2022-10-22T02:09:44.207Z,99895.16
2022-10-22T02:12:12.084Z,99818.16
2022-10-22T02:14:43.445Z,99858.25
2022-10-22T02:17:16.695Z,99871.88
2022-10-22T02:19:51.864Z,99885.59
2022-10-22T02:22:20.133Z,99847.13
2022-10-22T02:24:49.817Z,99882.16
2022-10-22T02:27:42.904Z,99876.97
2022-10-22T02:30:11.153Z,99887.31
2022-10-22T02:33:12.044Z,99879.63
2022-10-22T02:35:42.146Z,99791.69
2022-10-22T02:38:10.855Z,99889.88
2022-10-22T02:40:38.537Z,99907.97
2022-10-22T02:43:06.352Z,99895.03
2022-10-22T02:45:35.015Z,99894.13
2022-10-22T02:48:02.413Z,99887.25
2022-10-22T02:50:29.812Z,99902.78
2022-10-22T02:52:57.015Z,99914.84
2022-10-22T02:55:24.386Z,99919.16
2022-10-22T02:57:51.693Z,99919.16
2022-10-22T03:00:19.343Z,99920.91
2022-10-22T03:02:46.629Z,99912.25
2022-10-22T03:05:13.855Z,99904.53
2022-10-22T03:07:41.291Z,99913.13
2022-10-22T03:10:09.347Z,99914.88
2022-10-22T03:12:36.503Z,99913.19
2022-10-22T03:15:04.418Z,99912.34
2022-10-22T03:17:31.463Z,99917.47
2022-10-22T03:19:58.574Z,99921.72
2022-10-22T03:22:29.788Z,99877.38
2022-10-22T03:25:01.031Z,99870.41
2022-10-22T03:27:29.771Z,99888.38
2022-10-22T03:29:58.258Z,99902.00
2022-10-22T03:32:25.619Z,99893.47
2022-10-22T03:34:52.868Z,99920.00
2022-10-22T03:37:20.674Z,99907.28
2022-10-22T03:39:48.409Z,99911.59
2022-10-22T03:42:16.673Z,99931.19
2022-10-22T03:44:44.386Z,99927.72
2022-10-22T03:47:12.744Z,99926.84
2022-10-22T03:49:39.900Z,99932.03
2022-10-22T03:52:08.505Z,99923.38
2022-10-22T03:57:05.984Z,99927.69
2022-10-22T03:59:44.064Z,99920.78
2022-10-22T04:02:13.057Z,99919.94
2022-10-22T04:04:40.646Z,99914.75
2022-10-22T04:07:08.516Z,99913.88
2022-10-22T04:09:36.299Z,99904.44
2022-10-22T04:12:05.894Z,99887.25
2022-10-22T04:14:33.185Z,99901.81
2022-10-22T04:17:00.374Z,99846.28
2022-10-22T04:19:27.633Z,99885.53
2022-10-22T04:21:54.823Z,99847.13
2022-10-22T04:24:22.005Z,99899.22
2022-10-22T04:26:49.303Z,99869.34
2022-10-22T04:29:16.615Z,99805.38
2022-10-22T04:31:43.953Z,99906.94
2022-10-22T04:34:11.297Z,99899.22
2022-10-22T04:36:38.419Z,99866.63
2022-10-22T04:39:06.935Z,99877.59
2022-10-22T04:41:36.855Z,99880.19
2022-10-22T04:44:04.945Z,99873.50
2022-10-22T04:46:34.448Z,99878.63
2022-10-22T04:49:04.304Z,99861.63
2022-10-22T04:51:32.655Z,99882.19
2022-10-22T04:53:59.821Z,99907.75
2022-10-22T04:56:29.930Z,99912.91
2022-10-22T04:58:58.056Z,99908.63
2022-10-22T05:01:31.396Z,99914.66
2022-10-22T05:04:01.664Z,99904.47
2022-10-22T05:06:30.937Z,99918.09
2022-10-22T05:09:01.371Z,99929.31
2022-10-22T05:11:31.455Z,99938.78
2022-10-22T05:14:00.938Z,99937.09
2022-10-22T05:16:29.685Z,99927.59
2022-10-22T05:18:58.926Z,99930.19
2022-10-22T05:21:26.574Z,99923.28
2022-10-22T05:23:55.257Z,99925.09
2022-10-22T05:26:24.184Z,99935.34
2022-10-22T05:28:52.215Z,99906.28
2022-10-22T05:31:20.465Z,99894.41
2022-10-22T05:33:48.175Z,99943.06
2022-10-22T05:36:18.379Z,99940.56
2022-10-22T05:38:46.332Z,99952.56
2022-10-22T05:41:17.824Z,99929.56
2022-10-22T05:43:45.288Z,99945.69
2022-10-22T05:46:22.439Z,99947.34
2022-10-22T05:48:55.687Z,99939.63
2022-10-22T05:51:24.716Z,99947.34
2022-10-22T05:53:57.655Z,99929.44
2022-10-22T05:56:26.382Z,99948.19
2022-10-22T05:58:54.407Z,99939.59
2022-10-22T06:01:30.197Z,99940.47
2022-10-22T06:03:59.665Z,99947.28
2022-10-22T06:06:34.423Z,99943.84
2022-10-22T06:09:11.737Z,99948.19
2022-10-22T06:11:39.418Z,99950.78
2022-10-22T06:14:06.584Z,99937.22
2022-10-22T06:16:34.084Z,99975.75
2022-10-22T06:19:04.424Z,99979.22
2022-10-22T06:21:31.449Z,99982.66
2022-10-22T06:24:00.228Z,99974.91
2022-10-22T06:26:27.542Z,99974.84
2022-10-22T06:28:56.605Z,99976.53
2022-10-22T06:31:27.302Z,99967.03
2022-10-22T06:33:55.024Z,99969.63
2022-10-22T06:36:24.067Z,99971.38
2022-10-22T06:38:55.686Z,99984.25
2022-10-22T06:41:27.068Z,99991.13
2022-10-22T06:43:57.808Z,99929.66
2022-10-22T06:46:26.323Z,99992.81
2022-10-22T06:48:59.087Z,99995.41
2022-10-22T06:51:27.950Z,99996.22
2022-10-22T06:53:57.053Z,99997.13
2022-10-22T06:56:27.384Z,100002.25
2022-10-22T06:58:55.927Z,100017.84
2022-10-22T07:01:25.881Z,100022.97
2022-10-22T07:03:54.466Z,100028.97
2022-10-22T07:06:24.448Z,99976.75
2022-10-22T07:08:52.683Z,100017.78
2022-10-22T07:11:40.695Z,100026.34
2022-10-22T07:14:08.068Z,100026.34
2022-10-22T07:16:35.417Z,100022.97
2022-10-22T07:19:03.948Z,100021.22
2022-10-22T07:21:31.988Z,100022.84
2022-10-22T07:23:59.661Z,100029.72
2022-10-22T07:26:31.312Z,100031.41
2022-10-22T07:29:00.094Z,100008.28
2022-10-22T07:31:27.695Z,100041.72
2022-10-22T07:33:54.814Z,100039.09
2022-10-22T07:36:22.454Z,100040.00
2022-10-22T07:38:55.754Z,100051.16
2022-10-22T07:41:23.936Z,100051.97
2022-10-22T07:43:51.130Z,100024.59
2022-10-22T07:46:18.700Z,100041.53
2022-10-22T07:48:46.288Z,100039.78
2022-10-22T07:51:16.005Z,100032.88
2022-10-22T07:53:43.495Z,100018.13
2022-10-22T07:56:11.064Z,100012.16
2022-10-22T07:58:38.226Z,100029.25
2022-10-22T08:01:08.252Z,100026.59
2022-10-22T08:03:35.855Z,100036.00
2022-10-22T08:06:04.129Z,100020.53
2022-10-22T08:08:31.950Z,99954.81
2022-10-22T08:11:00.853Z,100028.94
2022-10-22T08:13:30.924Z,100038.41
2022-10-22T08:16:00.534Z,99999.91
2022-10-22T08:18:28.217Z,100023.03
2022-10-22T08:20:55.795Z,100041.03
2022-10-22T08:23:26.071Z,100038.47
2022-10-22T08:25:56.816Z,100044.34
2022-10-22T08:28:24.218Z,100025.69
2022-10-22T08:30:51.496Z,100053.06
2022-10-22T08:33:18.814Z,100053.00
2022-10-22T08:35:53.576Z,100048.69
2022-10-22T08:38:21.308Z,100034.84
2022-10-22T08:40:53.419Z,100019.50
2022-10-22T08:43:47.075Z,100043.50
2022-10-22T08:46:38.765Z,100040.88
2022-10-22T08:49:13.153Z,100027.06
2022-10-22T08:51:40.846Z,100036.53
2022-10-22T08:54:28.378Z,100034.00
2022-10-22T08:57:18.799Z,100027.13
2022-10-22T08:59:52.225Z,100025.31
2022-10-22T09:02:48.693Z,100015.09
2022-10-22T09:05:27.657Z,100029.53
2022-10-22T09:07:55.895Z,100034.72
2022-10-22T09:10:28.329Z,100032.19
2022-10-22T09:12:55.864Z,100032.97
2022-10-22T09:15:23.204Z,100042.41
2022-10-22T09:18:08.575Z,100051.88
2022-10-22T09:20:47.204Z,100051.00
2022-10-22T09:23:23.177Z,100057.88
2022-10-22T09:25:53.024Z,100044.09
2022-10-22T09:28:20.225Z,100046.69
2022-10-22T09:30:47.692Z,100061.31
2022-10-22T09:33:24.776Z,100067.38
2022-10-22T09:36:03.966Z,100073.50
2022-10-22T09:38:34.372Z,100089.00
2022-10-22T09:41:04.105Z,100090.75
2022-10-22T09:43:32.754Z,100082.22
2022-10-22T09:46:06.374Z,100058.34
2022-10-22T09:48:41.667Z,100101.13
2022-10-22T09:51:20.736Z,100101.13
2022-10-22T09:54:00.376Z,100097.66
2022-10-22T09:56:36.376Z,100098.50
2022-10-22T09:59:04.026Z,100097.59
2022-10-22T10:01:41.185Z,100097.59
2022-10-22T10:04:11.055Z,100091.50
2022-10-22T10:06:40.705Z,100080.22
2022-10-22T10:09:20.056Z,100082.00
2022-10-22T10:11:57.493Z,100085.34
2022-10-22T10:14:50.593Z,100078.47
2022-10-22T10:18:01.026Z,100057.03
2022-10-22T10:20:52.545Z,100078.34
2022-10-22T10:23:41.416Z,100078.34
2022-10-22T10:26:19.734Z,100001.41
2022-10-22T10:28:46.781Z,100078.28
2022-10-22T10:31:33.264Z,100074.81
2022-10-22T10:34:40.853Z,100053.41
2022-10-22T10:37:25.280Z,100069.59
2022-10-22T10:40:11.028Z,100072.97
2022-10-22T10:43:10.106Z,100069.63
2022-10-22T10:45:56.015Z,100081.59
2022-10-22T10:48:47.327Z,100083.34
2022-10-22T10:51:31.263Z,100086.78
2022-10-22T10:54:01.936Z,100078.09
2022-10-22T10:56:51.017Z,100078.97
2022-10-22T10:59:39.485Z,100075.50
2022-10-22T11:02:28.337Z,100071.16
2022-10-22T11:05:15.320Z,100074.56
2022-10-22T11:07:50.981Z,100047.25
2022-10-22T11:10:51.014Z,100072.81
2022-10-22T11:13:37.579Z,100072.81
2022-10-22T11:16:21.418Z,100079.63
2022-10-22T11:19:15.523Z,100082.22
2022-10-22T11:22:08.654Z,100082.22
2022-10-22T11:24:52.454Z,100079.63
2022-10-22T11:27:30.369Z,100083.91
2022-10-22T11:30:19.253Z,100069.41
2022-10-22T11:32:55.477Z,100072.75
2022-10-22T11:35:26.795Z,100082.09
2022-10-22T11:37:57.111Z,100076.06
2022-10-22T11:40:34.007Z,100082.16
2022-10-22T11:43:05.678Z,100070.00
2022-10-22T11:45:39.778Z,100073.47
2022-10-22T11:48:19.136Z,100067.50
2022-10-22T11:50:48.664Z,100069.13
2022-10-22T11:53:21.347Z,100057.97
2022-10-22T11:55:51.776Z,100067.38
2022-10-22T11:58:44.996Z,100072.63
2022-10-22T12:01:12.128Z,100067.38
2022-10-22T12:03:53.265Z,100067.38
2022-10-22T12:06:24.564Z,99987.16
2022-10-22T12:08:54.806Z,100074.28
2022-10-22T12:11:41.784Z,100065.69
2022-10-22T12:14:30.253Z,100071.72
2022-10-22T12:17:10.116Z,100064.00
2022-10-22T12:19:47.724Z,100074.31
2022-10-22T12:22:26.582Z,100076.06
2022-10-22T12:24:55.749Z,100057.19
2022-10-22T12:27:30.425Z,100058.72
2022-10-22T12:29:59.965Z,100051.94
2022-10-22T12:32:36.375Z,100055.22
2022-10-22T12:35:09.564Z,100051.75
2022-10-22T12:37:38.089Z,100031.19
2022-10-22T12:40:23.614Z,100036.25
2022-10-22T12:43:21.344Z,100044.78
2022-10-22T12:45:50.897Z,100043.09
2022-10-22T12:48:39.499Z,100042.25
2022-10-22T12:51:09.865Z,100004.56
2022-10-22T12:53:39.823Z,100048.28
2022-10-22T12:56:22.618Z,100003.88
2022-10-22T12:58:58.106Z,100016.53
2022-10-22T13:01:28.059Z,100043.03
2022-10-22T13:04:29.009Z,100030.06
2022-10-22T13:07:18.269Z,100044.66
2022-10-22T13:09:58.943Z,100042.06
2022-10-22T13:12:28.674Z,100044.66
2022-10-22T13:14:55.885Z,100054.13
2022-10-22T13:17:41.421Z,100053.25
2022-10-22T13:20:27.015Z,100051.56
2022-10-22T13:23:00.476Z,100037.00
2022-10-22T13:25:30.646Z,100047.22
2022-10-22T13:28:04.538Z,100042.88
2022-10-22T13:30:37.583Z,100046.31
2022-10-22T13:33:18.274Z,100043.75
2022-10-22T13:35:45.654Z,100025.81
2022-10-22T13:38:19.985Z,100041.25
2022-10-22T13:40:48.097Z,100041.97
2022-10-22T13:43:16.274Z,100041.13
2022-10-22T13:45:47.817Z,100007.03
2022-10-22T13:48:22.115Z,100045.41
2022-10-22T13:50:50.544Z,100030.88
2022-10-22T13:53:26.535Z,100037.63
2022-10-22T13:55:53.855Z,100042.81
2022-10-22T13:58:26.101Z,100018.84
2022-10-22T14:00:57.399Z,100036.88
2022-10-22T14:03:34.986Z,100048.00
2022-10-22T14:06:02.402Z,100054.94
2022-10-22T14:08:29.864Z,100047.22
2022-10-22T14:10:57.338Z,100052.34
2022-10-22T14:13:24.555Z,100051.50
2022-10-22T14:15:53.047Z,100050.66
2022-10-22T14:18:31.928Z,100045.41
2022-10-22T14:21:10.647Z,100052.34
2022-10-22T14:23:37.996Z,100053.19
2022-10-22T14:26:07.414Z,100054.94
2022-10-22T14:28:41.292Z,100046.44
2022-10-22T14:31:13.535Z,100053.19
2022-10-22T14:33:41.280Z,100060.16
2022-10-22T14:36:13.029Z,100065.31
2022-10-22T14:38:40.493Z,100061.03
2022-10-22T14:41:24.934Z,100063.56
2022-10-22T14:43:53.024Z,100065.31
2022-10-22T14:46:20.394Z,100056.69
2022-10-22T14:48:47.742Z,100067.00
2022-10-22T14:51:20.617Z,100068.75
2022-10-22T14:53:48.615Z,100067.00
2022-10-22T14:56:18.477Z,100068.69
2022-10-22T14:58:46.136Z,100070.44
2022-10-22T15:01:13.464Z,100063.50
2022-10-22T15:03:40.786Z,100075.63
2022-10-22T15:06:08.473Z,100055.09
2022-10-22T15:08:36.048Z,100079.06
2022-10-22T15:11:04.660Z,100081.66
2022-10-22T15:13:32.643Z,100033.03
2022-10-22T15:16:00.337Z,100079.06
2022-10-22T15:18:28.669Z,100071.50
2022-10-22T15:21:01.347Z,100075.72
2022-10-22T15:23:29.573Z,100089.53
2022-10-22T15:25:57.607Z,100084.34
2022-10-22T15:28:25.816Z,100098.13
2022-10-22T15:30:55.060Z,100100.72
2022-10-22T15:33:22.234Z,100096.47
2022-10-22T15:35:49.516Z,100112.81
2022-10-22T15:38:16.919Z,100109.44
2022-10-22T15:40:44.093Z,100110.22
2022-10-22T15:43:11.578Z,100102.59
2022-10-22T15:45:39.469Z,100086.28
2022-10-22T15:48:06.950Z,100083.84
2022-10-22T15:50:38.475Z,100123.25
2022-10-22T15:53:06.258Z,100105.28
2022-10-22T15:55:33.473Z,100086.50
2022-10-22T15:58:03.350Z,100130.19
2022-10-22T16:00:30.817Z,100121.69
2022-10-22T16:02:58.006Z,100130.97
2022-10-22T16:05:27.693Z,100125.91
2022-10-22T16:07:56.753Z,100136.16
2022-10-22T16:10:24.826Z,100142.22
2022-10-22T16:12:54.394Z,100150.00
2022-10-22T16:15:21.577Z,100101.22
2022-10-22T16:17:48.738Z,100152.63
2022-10-22T16:20:16.012Z,100156.06
2022-10-22T16:22:43.529Z,100146.59
2022-10-22T16:25:10.781Z,100151.72
2022-10-22T16:27:39.497Z,100158.66
2022-10-22T16:30:07.238Z,100155.22
2022-10-22T16:32:34.592Z,100146.72
2022-10-22T16:35:02.054Z,100153.56
2022-10-22T16:37:29.407Z,100169.03
2022-10-22T16:39:56.768Z,100163.00
2022-10-22T16:42:23.977Z,100165.53
2022-10-22T16:44:51.363Z,100167.44
2022-10-22T16:47:18.778Z,100170.72
2022-10-22T16:49:46.137Z,100138.31
2022-10-22T16:52:13.542Z,100170.78
2022-10-22T16:54:40.814Z,100176.75
2022-10-22T16:57:08.185Z,100178.56
2022-10-22T16:59:35.458Z,100183.69
2022-10-22T17:04:34.817Z,100176.03
2022-10-22T17:07:01.977Z,100104.22
2022-10-22T17:09:29.175Z,100188.81
2022-10-22T17:11:56.496Z,100094.03
2022-10-22T17:14:23.894Z,100193.16
2022-10-22T17:16:54.186Z,100191.47
2022-10-22T17:19:24.432Z,100198.38
2022-10-22T17:21:53.785Z,100159.00
2022-10-22T17:24:21.484Z,100206.09
2022-10-22T17:26:48.894Z,100187.34
2022-10-22T17:29:17.235Z,100205.22
2022-10-22T17:31:44.564Z,100205.22
2022-10-22T17:34:16.968Z,100211.28
2022-10-22T17:36:45.088Z,100192.53
2022-10-22T17:39:16.726Z,100212.19
2022-10-22T17:41:44.036Z,100229.44
2022-10-22T17:44:12.757Z,100222.56
2022-10-22T17:46:40.009Z,100223.41
2022-10-22T17:49:16.607Z,100236.31
2022-10-22T17:51:44.207Z,100210.50
2022-10-22T17:54:12.294Z,100208.75
2022-10-22T17:56:43.115Z,100232.81
2022-10-22T17:59:13.919Z,100231.06
2022-10-22T18:01:45.773Z,100229.31
2022-10-22T18:04:18.951Z,100228.44
2022-10-22T18:06:47.692Z,100232.81
2022-10-22T18:09:19.451Z,100234.50
2022-10-22T18:11:48.657Z,100237.09
2022-10-22T18:14:17.850Z,100205.41
2022-10-22T18:16:46.368Z,100236.19
2022-10-22T18:19:17.328Z,100237.06
2022-10-22T18:21:45.306Z,100235.38
2022-10-22T18:24:14.224Z,100239.63
2022-10-22T18:26:41.969Z,100236.19
2022-10-22T18:29:11.208Z,100226.00
2022-10-22T18:31:38.600Z,100176.38
2022-10-22T18:34:05.866Z,100250.00
2022-10-22T18:36:33.093Z,100249.16
2022-10-22T18:39:03.128Z,100242.22
2022-10-22T18:41:32.048Z,100209.72
2022-10-22T18:44:01.858Z,100251.72
2022-10-22T18:46:30.357Z,100248.25
2022-10-22T18:48:59.030Z,100250.91
2022-10-22T18:51:30.581Z,100253.44
2022-10-22T18:54:05.247Z,100235.47
2022-10-22T18:56:33.132Z,100240.59
2022-10-22T18:59:00.329Z,100260.38
2022-10-22T19:01:29.681Z,100216.66
2022-10-22T19:03:57.547Z,100245.72
2022-10-22T19:06:34.412Z,100259.47
2022-10-22T19:09:04.820Z,100260.31
2022-10-22T19:11:32.955Z,100251.66
2022-10-22T19:14:00.168Z,100245.84
2022-10-22T19:16:28.708Z,100256.88
2022-10-22T19:19:04.742Z,100261.16
2022-10-22T19:21:32.368Z,100265.44
2022-10-22T19:24:01.265Z,100262.91
2022-10-22T19:26:30.012Z,100211.56
2022-10-22T19:28:58.735Z,100275.84
2022-10-22T19:31:27.531Z,100272.38
2022-10-22T19:33:55.595Z,100277.56
2022-10-22T19:36:29.035Z,100276.72
2022-10-22T19:38:56.986Z,100279.28
2022-10-22T19:41:26.409Z,100291.38
2022-10-22T19:43:55.879Z,100293.09
2022-10-22T19:46:24.285Z,100299.13
2022-10-22T19:48:52.576Z,100294.78
2022-10-22T19:51:22.616Z,100299.97
2022-10-22T19:53:50.907Z,100301.78
2022-10-22T19:56:21.415Z,100301.72
2022-10-22T19:58:48.681Z,100301.00
2022-10-22T20:01:17.866Z,100313.78
2022-10-22T20:03:45.714Z,100269.28
2022-10-22T20:06:15.888Z,100322.44
2022-10-22T20:08:43.186Z,100319.03
2022-10-22T20:11:16.488Z,100325.88
2022-10-22T20:13:45.510Z,100327.59
2022-10-22T20:16:18.820Z,100257.47
2022-10-22T20:18:46.037Z,100338.00
2022-10-22T20:21:15.217Z,100339.69
2022-10-22T20:23:43.256Z,100326.00
2022-10-22T20:26:10.687Z,100329.44
2022-10-22T20:28:39.006Z,100344.94
2022-10-22T20:31:15.937Z,100351.81
2022-10-22T20:33:43.248Z,100335.53
2022-10-22T20:36:16.446Z,100341.47
2022-10-22T20:38:43.886Z,100353.53
2022-10-22T20:41:14.306Z,100353.53
2022-10-22T20:43:43.456Z,100350.09
2022-10-22T20:46:18.616Z,100360.47
2022-10-22T20:48:46.336Z,100362.19
2022-10-22T20:51:13.996Z,100360.53
2022-10-22T20:53:41.354Z,100357.03
2022-10-22T20:56:08.925Z,100349.31
2022-10-22T20:58:36.425Z,100363.97
2022-10-22T21:01:10.503Z,100357.00
2022-10-22T21:03:38.247Z,100368.25
2022-10-22T21:06:06.895Z,100367.41
2022-10-22T21:08:34.313Z,100354.56
2022-10-22T21:11:01.705Z,100350.31
2022-10-22T21:13:32.079Z,100370.84
2022-10-22T21:15:59.310Z,100369.22
2022-10-22T21:18:27.286Z,100360.69
2022-10-22T21:20:54.530Z,100372.66
2022-10-22T21:23:21.884Z,100343.63
2022-10-22T21:25:56.767Z,100361.59
2022-10-22T21:28:25.125Z,100300.94
2022-10-22T21:30:52.465Z,100354.00
2022-10-22T21:33:19.825Z,100360.84
2022-10-22T21:35:52.424Z,100348.88
2022-10-22T21:38:20.820Z,100379.72
2022-10-22T21:40:48.074Z,100381.41
2022-10-22T21:43:16.428Z,100339.47
2022-10-22T21:45:44.114Z,100385.75
2022-10-22T21:48:13.908Z,100384.00
2022-10-22T21:50:42.567Z,100393.50
2022-10-22T21:53:11.053Z,100393.56
2022-10-22T21:55:42.024Z,100373.75
2022-10-22T21:58:09.433Z,100393.50
2022-10-22T22:00:36.905Z,100394.38
2022-10-22T22:03:07.627Z,100400.44
2022-10-22T22:05:34.850Z,100358.47
2022-10-22T22:08:02.092Z,100396.13
2022-10-22T22:10:30.224Z,100397.84
2022-10-22T22:12:57.403Z,100402.22
2022-10-22T22:15:24.584Z,100391.91
2022-10-22T22:17:51.716Z,100325.19
2022-10-22T22:20:19.142Z,100400.56
2022-10-22T22:22:46.537Z,100400.56
2022-10-22T22:25:13.753Z,100392.94
2022-10-22T22:27:41.400Z,100417.94
2022-10-22T22:30:09.686Z,100399.97
2022-10-22T22:32:37.047Z,100409.47
2022-10-22T22:35:04.507Z,100427.53
2022-10-22T22:37:31.939Z,100424.13
2022-10-22T22:39:59.215Z,100430.19
2022-10-22T22:42:26.412Z,100421.56
2022-10-22T22:44:53.679Z,100435.31
2022-10-22T22:47:20.839Z,100426.66
2022-10-22T22:49:48.040Z,100405.22
2022-10-22T22:52:15.226Z,100431.84
2022-10-22T22:54:42.480Z,100399.28
2022-10-22T22:57:09.774Z,100395.84
2022-10-22T22:59:37.084Z,100435.38
2022-10-22T23:02:04.177Z,100431.84
2022-10-22T23:04:31.828Z,100395.00
2022-10-22T23:06:59.287Z,100407.09
2022-10-22T23:09:26.490Z,100433.63
2022-10-22T23:11:53.761Z,100435.38
2022-10-22T23:14:21.062Z,100438.84
2022-10-22T23:16:51.586Z,100441.44
2022-10-22T23:19:21.675Z,100425.13
2022-10-22T23:21:54.537Z,100420.91
2022-10-22T23:24:25.888Z,100430.28
2022-10-22T23:26:54.604Z,100442.34
2022-10-22T23:29:23.264Z,100440.59
2022-10-22T23:31:51.164Z,100440.59
2022-10-22T23:34:22.066Z,100433.75
2022-10-22T23:36:50.215Z,100437.16
2022-10-22T23:39:19.897Z,100431.97
2022-10-22T23:41:47.217Z,100429.47
2022-10-22T23:44:14.972Z,100440.72
2022-10-22T23:46:42.345Z,100404.69
2022-10-22T23:49:11.067Z,100441.56
2022-10-22T23:51:39.377Z,100437.28
2022-10-22T23:54:10.835Z,100440.75
2022-10-22T23:56:38.076Z,100437.28
2022-10-22T23:59:05.986Z,100409.78
